createdAt,value
2023-05-22T00:01:56.151Z,22.94
2023-05-22T00:04:23.033Z,22.95
2023-05-22T00:06:49.953Z,22.95
2023-05-22T00:09:16.695Z,22.96
2023-05-22T00:11:43.874Z,22.95
2023-05-22T00:14:10.739Z,22.95
2023-05-22T00:16:37.878Z,22.95
2023-05-22T00:19:04.757Z,22.93
2023-05-22T00:21:35.206Z,22.93
2023-05-22T00:24:02.410Z,22.93
2023-05-22T00:26:29.069Z,22.92
2023-05-22T00:28:55.918Z,22.91
2023-05-22T00:31:23.098Z,22.90
2023-05-22T00:33:50.631Z,22.89
2023-05-22T00:36:18.702Z,22.87
2023-05-22T00:38:46.396Z,22.86
2023-05-22T00:41:13.694Z,22.85
2023-05-22T00:43:40.744Z,22.84
2023-05-22T00:46:08.028Z,22.82
2023-05-22T00:48:34.935Z,22.80
2023-05-22T00:51:02.204Z,22.78
2023-05-22T00:53:31.286Z,22.75
2023-05-22T00:55:59.911Z,22.72
2023-05-22T00:58:27.391Z,22.67
2023-05-22T01:00:55.652Z,22.62
2023-05-22T01:03:26.998Z,22.58
2023-05-22T01:05:54.564Z,22.53
2023-05-22T01:08:21.545Z,22.47
2023-05-22T01:10:52.946Z,22.44
2023-05-22T01:13:30.031Z,22.39
2023-05-22T01:16:19.066Z,22.35
2023-05-22T01:18:50.491Z,22.28
2023-05-22T01:21:26.206Z,22.25
2023-05-22T01:24:42.087Z,22.21
2023-05-22T01:27:51.839Z,22.16
2023-05-22T01:30:43.781Z,22.12
2023-05-22T01:33:14.725Z,22.07
2023-05-22T01:35:44.273Z,22.00
2023-05-22T01:38:12.397Z,21.96
2023-05-22T01:40:40.766Z,21.91
2023-05-22T01:43:08.650Z,21.86
2023-05-22T01:45:35.460Z,21.81
2023-05-22T01:48:02.850Z,21.76
2023-05-22T01:50:30.141Z,21.72
2023-05-22T01:53:16.957Z,21.68
2023-05-22T01:56:07.984Z,21.63
2023-05-22T01:58:39.138Z,21.58
2023-05-22T02:01:10.242Z,21.53
2023-05-22T02:03:39.765Z,21.49
2023-05-22T02:06:09.025Z,21.44
2023-05-22T02:08:39.712Z,21.40
2023-05-22T02:11:11.216Z,21.35
2023-05-22T02:13:38.773Z,21.30
2023-05-22T02:16:07.240Z,21.24
2023-05-22T02:18:34.071Z,21.18
2023-05-22T02:21:02.774Z,21.11
2023-05-22T02:23:31.871Z,21.06
2023-05-22T02:25:58.638Z,21.00
2023-05-22T02:28:26.212Z,20.92
2023-05-22T02:30:53.075Z,20.85
2023-05-22T02:33:19.942Z,20.77
2023-05-22T02:35:49.400Z,20.69
2023-05-22T02:38:16.082Z,20.62
2023-05-22T02:40:42.863Z,20.57
2023-05-22T02:43:09.925Z,20.51
2023-05-22T02:45:37.178Z,20.47
2023-05-22T02:48:04.505Z,20.45
2023-05-22T02:50:32.108Z,20.41
2023-05-22T02:52:58.893Z,20.39
2023-05-22T02:55:25.703Z,20.36
2023-05-22T02:57:52.491Z,20.33
2023-05-22T03:00:20.188Z,20.31
2023-05-22T03:02:47.581Z,20.31
2023-05-22T03:05:17.974Z,20.30
2023-05-22T03:07:48.164Z,20.31
2023-05-22T03:10:15.446Z,20.36
2023-05-22T03:12:42.296Z,20.41
2023-05-22T03:15:11.164Z,20.46
2023-05-22T03:17:39.026Z,20.46
2023-05-22T03:20:07.269Z,20.46
2023-05-22T03:22:34.084Z,20.46
2023-05-22T03:25:00.817Z,20.46
2023-05-22T03:27:27.857Z,20.44
2023-05-22T03:29:55.076Z,20.43
2023-05-22T03:32:22.047Z,20.40
2023-05-22T03:34:49.138Z,20.37
2023-05-22T03:37:16.122Z,20.34
2023-05-22T03:39:43.349Z,20.34
2023-05-22T03:42:36.501Z,20.34
2023-05-22T03:45:03.453Z,20.34
2023-05-22T03:47:31.199Z,20.35
2023-05-22T03:49:58.248Z,20.37
2023-05-22T03:52:25.444Z,20.40
2023-05-22T03:54:53.662Z,20.43
2023-05-22T03:57:20.603Z,20.45
2023-05-22T03:59:47.327Z,20.44
2023-05-22T04:02:17.015Z,20.45
2023-05-22T04:04:46.490Z,20.44
2023-05-22T04:07:13.664Z,20.45
2023-05-22T04:09:41.712Z,20.46
2023-05-22T04:12:08.779Z,20.46
2023-05-22T04:14:35.711Z,20.46
2023-05-22T04:17:02.449Z,20.46
2023-05-22T04:19:30.249Z,20.46
2023-05-22T04:21:59.250Z,20.46
2023-05-22T04:24:27.693Z,20.46
2023-05-22T04:26:54.679Z,20.46
2023-05-22T04:29:22.523Z,20.46
2023-05-22T04:31:49.255Z,20.47
2023-05-22T04:34:17.143Z,20.47
2023-05-22T04:36:45.324Z,20.48
2023-05-22T04:39:13.897Z,20.51
2023-05-22T04:41:41.280Z,20.56
2023-05-22T04:44:08.396Z,20.59
2023-05-22T04:46:36.224Z,20.66
2023-05-22T04:49:03.486Z,20.71
2023-05-22T04:51:31.402Z,20.77
2023-05-22T04:53:58.663Z,20.84
2023-05-22T04:56:35.371Z,20.91
2023-05-22T04:59:04.930Z,20.98
2023-05-22T05:01:33.591Z,21.03
2023-05-22T05:04:00.885Z,21.11
2023-05-22T05:06:28.583Z,21.19
2023-05-22T05:08:55.507Z,21.26
2023-05-22T05:11:22.268Z,21.32
2023-05-22T05:13:49.106Z,21.37
2023-05-22T05:16:16.166Z,21.42
2023-05-22T05:18:43.364Z,21.46
2023-05-22T05:21:11.432Z,21.51
2023-05-22T05:23:38.494Z,21.58
2023-05-22T05:26:05.227Z,21.66
2023-05-22T05:28:32.067Z,21.69
2023-05-22T05:31:00.965Z,21.68
2023-05-22T05:33:42.952Z,21.67
2023-05-22T05:36:20.150Z,21.63
2023-05-22T05:38:47.208Z,21.65
2023-05-22T05:41:15.082Z,21.75
2023-05-22T05:43:42.701Z,21.83
2023-05-22T05:46:09.934Z,21.96
2023-05-22T05:48:36.948Z,22.10
2023-05-22T05:51:03.989Z,22.23
2023-05-22T05:53:41.081Z,22.34
2023-05-22T05:56:09.440Z,22.48
2023-05-22T05:58:37.405Z,22.58
2023-05-22T06:01:26.520Z,22.61
2023-05-22T06:03:53.856Z,22.62
2023-05-22T06:06:26.873Z,22.58
2023-05-22T06:09:11.524Z,22.53
2023-05-22T06:12:12.495Z,22.48
2023-05-22T06:14:42.840Z,22.45
2023-05-22T06:17:10.055Z,22.42
2023-05-22T06:19:38.740Z,22.39
2023-05-22T06:22:05.660Z,22.38
2023-05-22T06:24:32.739Z,22.37
2023-05-22T06:27:03.084Z,22.35
2023-05-22T06:29:31.318Z,22.30
2023-05-22T06:31:58.326Z,22.23
2023-05-22T06:34:25.975Z,22.17
2023-05-22T06:36:53.085Z,22.15
2023-05-22T06:39:21.903Z,22.16
2023-05-22T06:42:20.874Z,22.16
2023-05-22T06:45:07.277Z,22.19
2023-05-22T06:47:41.309Z,22.21
2023-05-22T06:50:10.642Z,22.19
2023-05-22T06:52:39.190Z,22.19
2023-05-22T06:55:07.493Z,22.17
2023-05-22T06:57:42.608Z,22.18
2023-05-22T07:00:12.716Z,22.19
2023-05-22T07:02:54.224Z,22.20
2023-05-22T07:05:29.103Z,22.20
2023-05-22T07:08:00.191Z,22.22
2023-05-22T07:10:27.906Z,22.29
2023-05-22T07:12:56.838Z,22.39
2023-05-22T07:15:23.642Z,22.49
2023-05-22T07:17:52.841Z,22.54
2023-05-22T07:20:19.675Z,22.61
2023-05-22T07:23:09.920Z,22.67
2023-05-22T07:25:37.784Z,22.74
2023-05-22T07:28:09.282Z,22.87
2023-05-22T07:30:40.387Z,23.04
2023-05-22T07:33:07.711Z,23.28
2023-05-22T07:35:35.197Z,23.49
2023-05-22T07:38:02.251Z,23.65
2023-05-22T07:40:29.257Z,23.77
2023-05-22T07:42:56.139Z,23.99
2023-05-22T07:45:24.120Z,24.33
2023-05-22T07:47:51.837Z,24.69
2023-05-22T07:50:21.489Z,25.04
2023-05-22T07:52:48.642Z,25.36
2023-05-22T07:55:16.830Z,25.70
2023-05-22T07:57:44.627Z,26.05
2023-05-22T08:00:20.146Z,26.40
2023-05-22T08:02:46.947Z,26.69
2023-05-22T08:05:14.028Z,26.91
2023-05-22T08:07:40.800Z,27.05
2023-05-22T08:10:13.708Z,27.14
2023-05-22T08:12:40.702Z,27.36
2023-05-22T08:15:08.185Z,27.58
2023-05-22T08:17:36.036Z,27.68
2023-05-22T08:20:03.705Z,27.70
2023-05-22T08:22:31.281Z,27.77
2023-05-22T08:25:00.177Z,27.85
2023-05-22T08:27:26.928Z,27.92
2023-05-22T08:29:53.600Z,27.94
2023-05-22T08:32:20.481Z,28.09
2023-05-22T08:34:48.143Z,28.31
2023-05-22T08:37:15.134Z,28.36
2023-05-22T08:39:41.941Z,28.39
2023-05-22T08:42:08.768Z,28.46
2023-05-22T08:44:35.913Z,28.63
2023-05-22T08:47:09.961Z,28.69
2023-05-22T08:49:39.989Z,28.86
2023-05-22T08:52:48.102Z,29.01
2023-05-22T08:55:15.127Z,29.18
2023-05-22T08:57:43.278Z,29.16
2023-05-22T09:00:10.485Z,29.06
2023-05-22T09:02:38.667Z,28.82
2023-05-22T09:05:09.242Z,28.58
2023-05-22T09:07:38.110Z,28.42
2023-05-22T09:10:07.335Z,28.33
2023-05-22T09:12:34.410Z,28.17
2023-05-22T09:15:11.888Z,28.20
2023-05-22T09:17:40.018Z,28.38
2023-05-22T09:20:08.286Z,28.62
2023-05-22T09:22:39.610Z,28.88
2023-05-22T09:25:09.857Z,29.00
2023-05-22T09:27:36.884Z,29.10
2023-05-22T09:30:03.942Z,29.28
2023-05-22T09:32:31.469Z,29.64
2023-05-22T09:35:05.361Z,30.02
2023-05-22T09:37:36.646Z,30.41
2023-05-22T09:40:14.088Z,30.70
2023-05-22T09:42:45.917Z,30.86
2023-05-22T09:45:13.259Z,30.94
2023-05-22T09:47:40.638Z,30.97
2023-05-22T09:50:10.656Z,30.77
2023-05-22T09:52:38.201Z,30.56
2023-05-22T09:55:08.918Z,30.51
2023-05-22T09:57:46.425Z,30.74
2023-05-22T10:00:17.667Z,30.94
2023-05-22T10:02:48.336Z,31.04
2023-05-22T10:05:21.572Z,30.98
2023-05-22T10:07:51.241Z,31.00
2023-05-22T10:10:24.523Z,30.88
2023-05-22T10:12:56.075Z,30.63
2023-05-22T10:15:23.275Z,30.47
2023-05-22T10:17:51.276Z,30.47
2023-05-22T10:20:18.966Z,30.31
2023-05-22T10:22:49.130Z,30.38
2023-05-22T10:25:18.499Z,30.43
2023-05-22T10:27:46.162Z,30.23
2023-05-22T10:30:52.220Z,30.31
2023-05-22T10:33:44.162Z,30.33
2023-05-22T10:36:24.945Z,30.38
2023-05-22T10:39:14.092Z,30.36
2023-05-22T10:41:41.861Z,30.50
2023-05-22T10:44:08.760Z,30.65
2023-05-22T10:46:36.796Z,30.78
2023-05-22T10:49:03.676Z,30.88
2023-05-22T10:51:32.540Z,30.83
2023-05-22T10:54:05.873Z,30.88
2023-05-22T10:56:35.587Z,30.84
2023-05-22T10:59:08.318Z,30.93
2023-05-22T11:01:38.149Z,31.06
2023-05-22T11:04:19.373Z,31.00
2023-05-22T11:07:04.678Z,31.03
2023-05-22T11:09:53.551Z,31.31
2023-05-22T11:12:24.482Z,31.56
2023-05-22T11:15:06.017Z,31.74
2023-05-22T11:17:39.782Z,32.03
2023-05-22T11:20:18.479Z,32.32
2023-05-22T11:22:52.349Z,32.62
2023-05-22T11:25:20.392Z,32.72
2023-05-22T11:27:48.620Z,32.64
2023-05-22T11:30:16.482Z,32.56
2023-05-22T11:32:45.354Z,32.52
2023-05-22T11:35:19.796Z,32.44
2023-05-22T11:37:47.930Z,32.27
2023-05-22T11:40:19.317Z,32.24
2023-05-22T11:42:46.640Z,32.20
2023-05-22T11:45:14.295Z,32.00
2023-05-22T11:47:41.911Z,31.64
2023-05-22T11:50:09.938Z,31.42
2023-05-22T11:52:38.537Z,31.40
2023-05-22T11:55:06.311Z,31.55
2023-05-22T11:57:33.021Z,31.76
2023-05-22T11:59:59.925Z,32.06
2023-05-22T12:02:26.923Z,32.40
2023-05-22T12:04:57.997Z,32.55
2023-05-22T12:07:26.946Z,32.34
2023-05-22T12:09:56.660Z,32.23
2023-05-22T12:12:23.386Z,32.20
2023-05-22T12:14:50.253Z,32.05
2023-05-22T12:17:18.117Z,32.02
2023-05-22T12:19:45.197Z,32.10
2023-05-22T12:22:12.722Z,32.07
2023-05-22T12:24:41.313Z,32.08
2023-05-22T12:27:11.954Z,32.09
2023-05-22T12:29:39.420Z,31.99
2023-05-22T12:32:12.328Z,32.08
2023-05-22T12:34:44.806Z,32.12
2023-05-22T12:37:28.558Z,31.78
2023-05-22T12:40:00.373Z,31.46
2023-05-22T12:42:28.738Z,31.45
2023-05-22T12:44:58.103Z,31.56
2023-05-22T12:47:25.507Z,31.69
2023-05-22T12:49:52.971Z,31.83
2023-05-22T12:52:19.795Z,31.78
2023-05-22T12:54:46.621Z,31.58
2023-05-22T12:57:13.847Z,31.59
2023-05-22T12:59:40.792Z,31.81
2023-05-22T13:02:08.147Z,32.11
2023-05-22T13:04:34.988Z,32.24
2023-05-22T13:07:01.754Z,32.00
2023-05-22T13:09:28.860Z,31.78
2023-05-22T13:11:55.820Z,31.68
2023-05-22T13:14:22.713Z,31.56
2023-05-22T13:16:49.657Z,31.52
2023-05-22T13:19:16.679Z,31.67
2023-05-22T13:21:43.861Z,31.69
2023-05-22T13:24:11.037Z,31.75
2023-05-22T13:26:37.884Z,31.91
2023-05-22T13:29:05.095Z,32.09
2023-05-22T13:31:37.200Z,32.18
2023-05-22T13:34:04.787Z,32.25
2023-05-22T13:36:31.770Z,32.26
2023-05-22T13:38:58.940Z,32.20
2023-05-22T13:41:25.842Z,32.20
2023-05-22T13:43:52.737Z,32.14
2023-05-22T13:46:21.458Z,31.82
2023-05-22T13:48:48.229Z,31.55
2023-05-22T13:51:15.022Z,31.45
2023-05-22T13:53:41.868Z,31.38
2023-05-22T13:56:08.565Z,31.17
2023-05-22T13:58:35.389Z,30.98
2023-05-22T14:01:02.142Z,30.81
2023-05-22T14:03:28.982Z,30.77
2023-05-22T14:05:56.015Z,30.81
2023-05-22T14:08:22.739Z,30.93
2023-05-22T14:10:49.444Z,31.09
2023-05-22T14:13:16.234Z,31.25
2023-05-22T14:15:46.876Z,31.33
2023-05-22T14:18:14.686Z,31.46
2023-05-22T14:20:41.572Z,31.55
2023-05-22T14:23:08.852Z,31.69
2023-05-22T14:25:35.596Z,31.70
2023-05-22T14:28:02.377Z,31.63
2023-05-22T14:30:29.104Z,31.59
2023-05-22T14:32:55.957Z,31.55
2023-05-22T14:35:22.796Z,31.48
2023-05-22T14:37:49.519Z,31.42
2023-05-22T14:40:16.443Z,31.46
2023-05-22T14:42:43.242Z,31.56
2023-05-22T14:45:10.195Z,31.67
2023-05-22T14:47:37.101Z,31.75
2023-05-22T14:50:18.325Z,31.79
2023-05-22T14:52:46.180Z,31.83
2023-05-22T14:55:13.119Z,31.80
2023-05-22T14:57:39.942Z,31.71
2023-05-22T15:00:09.098Z,31.66
2023-05-22T15:02:36.888Z,31.61
2023-05-22T15:05:03.924Z,31.49
2023-05-22T15:07:43.039Z,31.45
2023-05-22T15:10:11.311Z,31.50
2023-05-22T15:12:38.088Z,31.52
2023-05-22T15:15:05.240Z,31.45
2023-05-22T15:17:31.980Z,31.37
2023-05-22T15:19:58.653Z,31.24
2023-05-22T15:22:25.280Z,31.21
2023-05-22T15:25:05.023Z,31.20
2023-05-22T15:27:32.968Z,31.14
2023-05-22T15:29:59.694Z,31.05
2023-05-22T15:32:26.441Z,30.89
2023-05-22T15:34:53.334Z,30.69
2023-05-22T15:37:20.078Z,30.52
2023-05-22T15:39:46.754Z,30.36
2023-05-22T15:42:13.393Z,30.24
2023-05-22T15:44:40.203Z,30.07
2023-05-22T15:47:07.038Z,29.88
2023-05-22T15:49:33.773Z,29.71
2023-05-22T15:52:00.603Z,29.57
2023-05-22T15:54:27.226Z,29.43
2023-05-22T15:56:53.865Z,29.25
2023-05-22T15:59:20.545Z,29.05
2023-05-22T16:01:47.368Z,28.91
2023-05-22T16:04:14.241Z,28.79
2023-05-22T16:06:41.552Z,28.68
2023-05-22T16:09:08.300Z,28.60
2023-05-22T16:11:35.106Z,28.52
2023-05-22T16:14:01.790Z,28.43
2023-05-22T16:16:28.790Z,28.37
2023-05-22T16:18:56.020Z,28.31
2023-05-22T16:21:22.860Z,28.27
2023-05-22T16:23:49.558Z,28.23
2023-05-22T16:26:16.311Z,28.17
2023-05-22T16:28:43.002Z,28.13
2023-05-22T16:31:09.756Z,28.08
2023-05-22T16:33:37.586Z,28.03
2023-05-22T16:36:05.927Z,27.99
2023-05-22T16:38:32.777Z,27.94
2023-05-22T16:40:59.638Z,27.88
2023-05-22T16:43:26.277Z,27.82
2023-05-22T16:45:53.019Z,27.76
2023-05-22T16:48:20.065Z,27.70
2023-05-22T16:50:47.078Z,27.64
2023-05-22T16:53:14.137Z,27.57
2023-05-22T16:55:41.057Z,27.48
2023-05-22T16:58:09.125Z,27.41
2023-05-22T17:00:36.597Z,27.36
2023-05-22T17:03:03.826Z,27.33
2023-05-22T17:05:30.752Z,27.28
2023-05-22T17:07:57.600Z,27.24
2023-05-22T17:10:24.266Z,27.17
2023-05-22T17:12:51.230Z,27.12
2023-05-22T17:15:17.936Z,27.06
2023-05-22T17:17:44.704Z,26.99
2023-05-22T17:20:11.908Z,26.94
2023-05-22T17:22:38.641Z,26.89
2023-05-22T17:25:06.243Z,26.83
2023-05-22T17:27:36.034Z,26.78
2023-05-22T17:30:04.926Z,26.71
2023-05-22T17:32:32.997Z,26.65
2023-05-22T17:35:00.295Z,26.59
2023-05-22T17:37:27.032Z,26.51
2023-05-22T17:39:53.928Z,26.47
2023-05-22T17:42:20.682Z,26.40
2023-05-22T17:44:47.777Z,26.33
2023-05-22T17:47:14.626Z,26.28
2023-05-22T17:49:41.440Z,26.22
2023-05-22T17:52:08.819Z,26.17
2023-05-22T17:54:35.925Z,26.11
2023-05-22T17:57:04.235Z,26.03
2023-05-22T17:59:33.025Z,25.95
2023-05-22T18:01:59.818Z,25.88
2023-05-22T18:04:26.542Z,25.81
2023-05-22T18:06:53.380Z,25.73
2023-05-22T18:09:20.112Z,25.65
2023-05-22T18:11:46.791Z,25.58
2023-05-22T18:14:13.566Z,25.48
2023-05-22T18:16:40.367Z,25.39
2023-05-22T18:19:07.313Z,25.30
2023-05-22T18:21:34.205Z,25.22
2023-05-22T18:24:01.069Z,25.14
2023-05-22T18:26:27.912Z,25.07
2023-05-22T18:28:54.662Z,24.98
2023-05-22T18:31:22.248Z,24.89
2023-05-22T18:33:49.145Z,24.80
2023-05-22T18:36:16.419Z,24.71
2023-05-22T18:38:43.214Z,24.62
2023-05-22T18:41:10.200Z,24.54
2023-05-22T18:43:36.986Z,24.48
2023-05-22T18:46:04.456Z,24.42
2023-05-22T18:48:31.657Z,24.38
2023-05-22T18:50:58.942Z,24.33
2023-05-22T18:53:26.384Z,24.30
2023-05-22T18:55:54.083Z,24.28
2023-05-22T18:58:21.127Z,24.26
2023-05-22T19:00:48.234Z,24.24
2023-05-22T19:03:15.268Z,24.22
2023-05-22T19:05:43.155Z,24.20
2023-05-22T19:08:09.955Z,24.18
2023-05-22T19:10:36.671Z,24.16
2023-05-22T19:13:04.058Z,24.12
2023-05-22T19:15:30.878Z,24.09
2023-05-22T19:17:57.775Z,24.06
2023-05-22T19:20:24.841Z,24.04
2023-05-22T19:22:51.611Z,24.03
2023-05-22T19:25:18.706Z,24.01
2023-05-22T19:27:48.404Z,23.99
2023-05-22T19:30:16.547Z,23.97
2023-05-22T19:32:43.823Z,23.96
2023-05-22T19:35:11.508Z,23.95
2023-05-22T19:37:38.261Z,23.93
2023-05-22T19:40:06.079Z,23.91
2023-05-22T19:42:33.156Z,23.90
2023-05-22T19:44:59.992Z,23.88
2023-05-22T19:47:27.411Z,23.86
2023-05-22T19:49:54.239Z,23.85
2023-05-22T19:52:21.051Z,23.82
2023-05-22T19:54:47.823Z,23.80
2023-05-22T19:57:14.680Z,23.76
2023-05-22T19:59:41.659Z,23.73
2023-05-22T20:02:08.641Z,23.72
2023-05-22T20:04:35.545Z,23.72
2023-05-22T20:07:03.860Z,23.73
2023-05-22T20:09:30.667Z,23.71
2023-05-22T20:11:57.446Z,23.70
2023-05-22T20:14:24.153Z,23.67
2023-05-22T20:16:51.506Z,23.64
2023-05-22T20:19:19.089Z,23.62
2023-05-22T20:21:49.073Z,23.60
2023-05-22T20:24:19.018Z,23.57
2023-05-22T20:26:48.295Z,23.53
2023-05-22T20:29:15.108Z,23.49
2023-05-22T20:31:42.078Z,23.46
2023-05-22T20:34:09.694Z,23.43
2023-05-22T20:36:36.592Z,23.38
2023-05-22T20:39:03.675Z,23.34
2023-05-22T20:41:34.676Z,23.28
2023-05-22T20:44:02.854Z,23.23
2023-05-22T20:46:32.542Z,23.18
2023-05-22T20:48:59.573Z,23.13
2023-05-22T20:51:32.485Z,23.08
2023-05-22T20:54:00.306Z,23.06
2023-05-22T20:56:27.514Z,23.02
2023-05-22T20:58:54.963Z,22.97
2023-05-22T21:01:25.078Z,22.93
2023-05-22T21:03:56.495Z,22.89
2023-05-22T21:06:23.907Z,22.85
2023-05-22T21:08:54.270Z,22.82
2023-05-22T21:11:21.152Z,22.77
2023-05-22T21:13:47.969Z,22.74
2023-05-22T21:16:14.617Z,22.74
2023-05-22T21:18:41.431Z,22.73
2023-05-22T21:21:08.102Z,22.73
2023-05-22T21:23:35.310Z,22.72
2023-05-22T21:26:05.264Z,22.69
2023-05-22T21:28:32.090Z,22.68
2023-05-22T21:30:58.766Z,22.67
2023-05-22T21:33:25.831Z,22.67
2023-05-22T21:35:52.672Z,22.65
2023-05-22T21:38:19.318Z,22.63
2023-05-22T21:40:46.025Z,22.62
2023-05-22T21:43:13.268Z,22.61
2023-05-22T21:45:40.049Z,22.60
2023-05-22T21:48:06.806Z,22.58
2023-05-22T21:50:33.747Z,22.58
2023-05-22T21:53:00.388Z,22.57
2023-05-22T21:55:27.042Z,22.57
2023-05-22T21:57:55.684Z,22.55
2023-05-22T22:00:22.964Z,22.52
2023-05-22T22:02:49.873Z,22.51
2023-05-22T22:05:18.664Z,22.50
2023-05-22T22:07:45.637Z,22.50
2023-05-22T22:10:12.364Z,22.49
2023-05-22T22:12:39.056Z,22.48
2023-05-22T22:15:06.757Z,22.47
2023-05-22T22:17:34.976Z,22.44
2023-05-22T22:20:01.863Z,22.42
2023-05-22T22:22:28.503Z,22.40
2023-05-22T22:24:55.202Z,22.39
2023-05-22T22:27:21.918Z,22.36
2023-05-22T22:29:48.549Z,22.34
2023-05-22T22:32:15.530Z,22.32
2023-05-22T22:34:43.673Z,22.30
2023-05-22T22:37:10.405Z,22.28
2023-05-22T22:39:37.225Z,22.26
2023-05-22T22:42:05.158Z,22.23
2023-05-22T22:44:32.442Z,22.23
2023-05-22T22:47:01.896Z,22.22
2023-05-22T22:49:28.794Z,22.21
2023-05-22T22:51:56.635Z,22.19
2023-05-22T22:54:24.277Z,22.18
2023-05-22T22:56:51.704Z,22.18
2023-05-22T22:59:18.366Z,22.18
2023-05-22T23:01:45.171Z,22.16
2023-05-22T23:04:13.265Z,22.14
2023-05-22T23:06:42.700Z,22.14
2023-05-22T23:09:11.300Z,22.11
2023-05-22T23:11:38.843Z,22.08
2023-05-22T23:14:10.182Z,22.04
2023-05-22T23:16:40.873Z,22.00
2023-05-22T23:19:09.495Z,21.99
2023-05-22T23:21:36.774Z,21.97
2023-05-22T23:24:05.230Z,21.96
2023-05-22T23:26:32.877Z,21.94
2023-05-22T23:29:00.264Z,21.93
2023-05-22T23:31:30.502Z,21.90
2023-05-22T23:33:58.233Z,21.88
2023-05-22T23:36:25.494Z,21.85
2023-05-22T23:38:52.690Z,21.84
2023-05-22T23:41:19.393Z,21.82
2023-05-22T23:43:47.155Z,21.80
2023-05-22T23:46:14.227Z,21.79
2023-05-22T23:48:42.460Z,21.76
2023-05-22T23:51:09.866Z,21.76
2023-05-22T23:53:37.073Z,21.75
2023-05-22T23:56:04.777Z,21.75
2023-05-22T23:58:32.199Z,21.75
